LPE2198 SPHO-SPJC
Flight info
| Callsign | LPE2198 |
|---|---|
| Flight time | 0h 40m |
| Altitude | 28000 |
| Route | UDENI UT321 PEROV |
| Aircraft | A320/M-SDE3FGHIRWY/LB1 |
Departure
| Time | 2026-05-07 22:02 |
|---|---|
| Airport | Air Force Colonel Alfredo Mendivil Duarte Airport (SPHO) |
Arrival
| Time | 2026-05-07 22:42 |
|---|---|
| Airport | Jorge Chávez International Airport (SPJC) |
| Time | Latitude | Longitude | Altitude | Speed | Heading |
|---|---|---|---|---|---|
| 2026-05-07 21:52 | -13.15398 | -74.20507 | 9015 ft | 1 kts | 142° |
| 2026-05-07 21:56 | -13.15402 | -74.20504 | 9015 ft | 1 kts | 142° |
| 2026-05-07 21:56 | -13.15403 | -74.20501 | 9015 ft | 0 kts | 120° |
| 2026-05-07 21:57 | -13.15405 | -74.20494 | 9029 ft | 2 kts | 113° |
| 2026-05-07 21:57 | -13.15412 | -74.20475 | 9025 ft | 3 kts | 109° |
| 2026-05-07 21:57 | -13.15424 | -74.20444 | 9025 ft | 7 kts | 122° |
| 2026-05-07 21:57 | -13.15491 | -74.20448 | 9015 ft | 14 kts | 203° |
| 2026-05-07 21:58 | -13.15602 | -74.20495 | 9013 ft | 19 kts | 202° |
| 2026-05-07 21:58 | -13.15736 | -74.20552 | 9006 ft | 23 kts | 202° |
| 2026-05-07 21:58 | -13.15897 | -74.20623 | 8996 ft | 28 kts | 203° |
| 2026-05-07 21:58 | -13.16089 | -74.20705 | 8983 ft | 32 kts | 202° |
| 2026-05-07 21:59 | -13.16268 | -74.20781 | 8977 ft | 22 kts | 202° |
| 2026-05-07 21:59 | -13.16412 | -74.20841 | 8976 ft | 22 kts | 202° |
| 2026-05-07 21:59 | -13.16528 | -74.20889 | 8979 ft | 11 kts | 203° |
| 2026-05-07 21:59 | -13.16567 | -74.20942 | 8981 ft | 9 kts | 248° |
| 2026-05-07 22:00 | -13.16597 | -74.20974 | 8982 ft | 5 kts | 192° |
| 2026-05-07 22:00 | -13.16628 | -74.20943 | 8983 ft | 6 kts | 110° |
| 2026-05-07 22:00 | -13.16602 | -74.20922 | 8982 ft | 6 kts | 22° |
| 2026-05-07 22:00 | -13.16594 | -74.20919 | 8981 ft | 0 kts | 23° |
| 2026-05-07 22:01 | -13.16584 | -74.20914 | 8981 ft | 7 kts | 23° |
| 2026-05-07 22:01 | -13.16341 | -74.20811 | 8977 ft | 75 kts | 22° |
| 2026-05-07 22:01 | -13.15660 | -74.20523 | 9011 ft | 131 kts | 22° |
| 2026-05-07 22:01 | -13.14707 | -74.20118 | 9022 ft | 167 kts | 20° |
| 2026-05-07 22:02 | -13.13626 | -74.19688 | 9614 ft | 164 kts | 21° |
| 2026-05-07 22:02 | -13.12541 | -74.19297 | 10429 ft | 166 kts | 7° |
| 2026-05-07 22:02 | -13.11379 | -74.19216 | 11235 ft | 169 kts | 10° |
| 2026-05-07 22:02 | -13.10185 | -74.18989 | 11469 ft | 178 kts | 8° |
| 2026-05-07 22:03 | -13.08895 | -74.19036 | 11538 ft | 195 kts | 347° |
| 2026-05-07 22:03 | -13.07558 | -74.19417 | 11610 ft | 209 kts | 345° |
| 2026-05-07 22:03 | -13.06085 | -74.19849 | 11683 ft | 225 kts | 345° |
| 2026-05-07 22:03 | -13.04538 | -74.20310 | 11739 ft | 243 kts | 344° |
| 2026-05-07 22:04 | -13.03413 | -74.20648 | 11791 ft | 255 kts | 344° |
| 2026-05-07 22:04 | -13.01016 | -74.21380 | 11938 ft | 286 kts | 341° |
| 2026-05-07 22:04 | -12.99221 | -74.22393 | 12178 ft | 304 kts | 325° |
| 2026-05-07 22:04 | -12.98072 | -74.23232 | 12522 ft | 308 kts | 324° |
| 2026-05-07 22:05 | -12.96327 | -74.24543 | 13085 ft | 311 kts | 324° |
| 2026-05-07 22:05 | -12.94577 | -74.25878 | 13313 ft | 314 kts | 323° |
| 2026-05-07 22:05 | -12.92854 | -74.27196 | 13872 ft | 302 kts | 324° |
| 2026-05-07 22:05 | -12.91182 | -74.28470 | 14277 ft | 298 kts | 324° |
| 2026-05-07 22:06 | -12.89513 | -74.29731 | 14550 ft | 298 kts | 324° |
| 2026-05-07 22:06 | -12.87857 | -74.30973 | 14800 ft | 300 kts | 324° |
| 2026-05-07 22:06 | -12.86179 | -74.32260 | 15038 ft | 301 kts | 321° |
| 2026-05-07 22:06 | -12.84620 | -74.33705 | 15269 ft | 303 kts | 313° |
| 2026-05-07 22:07 | -12.83273 | -74.35381 | 15507 ft | 305 kts | 304° |
| 2026-05-07 22:07 | -12.82207 | -74.37255 | 15746 ft | 306 kts | 295° |
| 2026-05-07 22:07 | -12.81389 | -74.39280 | 15990 ft | 307 kts | 291° |
| 2026-05-07 22:07 | -12.80600 | -74.41323 | 16246 ft | 309 kts | 291° |
| 2026-05-07 22:08 | -12.79799 | -74.43377 | 16503 ft | 310 kts | 291° |
| 2026-05-07 22:08 | -12.78990 | -74.45437 | 16751 ft | 312 kts | 291° |
| 2026-05-07 22:08 | -12.78183 | -74.47481 | 16998 ft | 313 kts | 291° |
| 2026-05-07 22:08 | -12.77367 | -74.49558 | 17238 ft | 315 kts | 290° |
| 2026-05-07 22:09 | -12.76544 | -74.51658 | 17694 ft | 321 kts | 291° |
| 2026-05-07 22:09 | -12.75684 | -74.53844 | 17848 ft | 339 kts | 291° |
| 2026-05-07 22:09 | -12.74782 | -74.56134 | 18189 ft | 350 kts | 291° |
| 2026-05-07 22:09 | -12.73855 | -74.58502 | 18342 ft | 366 kts | 291° |
| 2026-05-07 22:10 | -12.72886 | -74.60978 | 18460 ft | 382 kts | 291° |
| 2026-05-07 22:10 | -12.71874 | -74.63550 | 18620 ft | 395 kts | 291° |
| 2026-05-07 22:10 | -12.70847 | -74.66150 | 18968 ft | 401 kts | 291° |
| 2026-05-07 22:10 | -12.69798 | -74.68810 | 19369 ft | 404 kts | 291° |
| 2026-05-07 22:11 | -12.68744 | -74.71488 | 19815 ft | 407 kts | 291° |
| 2026-05-07 22:11 | -12.67679 | -74.74189 | 20236 ft | 410 kts | 291° |
| 2026-05-07 22:11 | -12.66605 | -74.76907 | 20666 ft | 412 kts | 291° |
| 2026-05-07 22:11 | -12.65529 | -74.79640 | 21096 ft | 415 kts | 291° |
| 2026-05-07 22:12 | -12.64447 | -74.82392 | 21527 ft | 417 kts | 291° |
| 2026-05-07 22:12 | -12.63357 | -74.85162 | 21948 ft | 420 kts | 291° |
| 2026-05-07 22:12 | -12.62264 | -74.87946 | 22369 ft | 423 kts | 290° |
| 2026-05-07 22:12 | -12.61379 | -74.90821 | 22767 ft | 425 kts | 283° |
| 2026-05-07 22:13 | -12.60635 | -74.93762 | 23171 ft | 428 kts | 283° |
| 2026-05-07 22:13 | -12.59884 | -74.96721 | 23589 ft | 430 kts | 283° |
| 2026-05-07 22:13 | -12.59133 | -74.99693 | 23941 ft | 432 kts | 283° |
| 2026-05-07 22:13 | -12.58389 | -75.02640 | 24299 ft | 433 kts | 283° |
| 2026-05-07 22:14 | -12.57635 | -75.05630 | 24677 ft | 434 kts | 284° |
| 2026-05-07 22:14 | -12.56880 | -75.08625 | 25071 ft | 434 kts | 284° |
| 2026-05-07 22:14 | -12.56125 | -75.11626 | 25448 ft | 435 kts | 284° |
| 2026-05-07 22:14 | -12.55368 | -75.14630 | 25835 ft | 435 kts | 284° |
| 2026-05-07 22:15 | -12.54606 | -75.17634 | 26222 ft | 435 kts | 284° |
| 2026-05-07 22:15 | -12.53894 | -75.20437 | 26564 ft | 436 kts | 284° |
| 2026-05-07 22:15 | -12.53137 | -75.23428 | 26771 ft | 428 kts | 284° |
| 2026-05-07 22:15 | -12.52390 | -75.26396 | 26920 ft | 432 kts | 284° |
| 2026-05-07 22:16 | -12.51646 | -75.29386 | 27198 ft | 435 kts | 284° |
| 2026-05-07 22:16 | -12.50933 | -75.32417 | 27507 ft | 437 kts | 283° |
| 2026-05-07 22:16 | -12.50251 | -75.35450 | 27834 ft | 439 kts | 283° |
| 2026-05-07 22:16 | -12.49580 | -75.38475 | 28081 ft | 440 kts | 283° |
| 2026-05-07 22:17 | -12.48904 | -75.41537 | 28140 ft | 429 kts | 283° |
| 2026-05-07 22:17 | -12.48256 | -75.44453 | 28144 ft | 422 kts | 283° |
| 2026-05-07 22:17 | -12.46940 | -75.50280 | 28149 ft | 418 kts | 283° |
| 2026-05-07 22:18 | -12.44961 | -75.58966 | 28157 ft | 419 kts | 283° |
| 2026-05-07 22:19 | -12.43618 | -75.64806 | 28162 ft | 419 kts | 283° |
| 2026-05-07 22:19 | -12.42300 | -75.70582 | 28158 ft | 419 kts | 283° |
| 2026-05-07 22:20 | -12.40975 | -75.76394 | 28154 ft | 419 kts | 283° |
| 2026-05-07 22:20 | -12.39647 | -75.82211 | 28156 ft | 419 kts | 283° |
| 2026-05-07 22:21 | -12.38324 | -75.87996 | 28155 ft | 420 kts | 283° |
| 2026-05-07 22:21 | -12.36995 | -75.93819 | 28154 ft | 420 kts | 283° |
| 2026-05-07 22:22 | -12.35660 | -75.99640 | 28155 ft | 420 kts | 283° |
| 2026-05-07 22:22 | -12.34328 | -76.05466 | 28148 ft | 420 kts | 283° |
| 2026-05-07 22:23 | -12.33060 | -76.11269 | 28145 ft | 420 kts | 282° |
| 2026-05-07 22:23 | -12.32438 | -76.14184 | 28027 ft | 418 kts | 282° |
| 2026-05-07 22:23 | -12.31822 | -76.17065 | 27615 ft | 412 kts | 282° |
| 2026-05-07 22:23 | -12.31209 | -76.19924 | 27094 ft | 409 kts | 282° |
| 2026-05-07 22:24 | -12.30600 | -76.22753 | 26572 ft | 406 kts | 282° |
| 2026-05-07 22:24 | -12.29996 | -76.25559 | 26059 ft | 403 kts | 282° |
| 2026-05-07 22:24 | -12.29396 | -76.28343 | 25565 ft | 399 kts | 282° |
| 2026-05-07 22:24 | -12.28799 | -76.31116 | 25071 ft | 397 kts | 282° |
| 2026-05-07 22:25 | -12.28212 | -76.33840 | 24591 ft | 395 kts | 282° |
| 2026-05-07 22:25 | -12.27623 | -76.36584 | 24105 ft | 393 kts | 281° |
| 2026-05-07 22:25 | -12.27039 | -76.39311 | 23606 ft | 392 kts | 281° |
| 2026-05-07 22:25 | -12.26453 | -76.42041 | 23055 ft | 391 kts | 281° |
| 2026-05-07 22:26 | -12.25871 | -76.44744 | 22577 ft | 388 kts | 282° |
| 2026-05-07 22:26 | -12.25291 | -76.47431 | 22090 ft | 386 kts | 282° |
| 2026-05-07 22:26 | -12.24711 | -76.50107 | 21591 ft | 385 kts | 282° |
| 2026-05-07 22:26 | -12.24130 | -76.52775 | 21100 ft | 384 kts | 282° |
| 2026-05-07 22:27 | -12.23552 | -76.55441 | 20597 ft | 383 kts | 282° |
| 2026-05-07 22:27 | -12.22977 | -76.58104 | 20089 ft | 383 kts | 282° |
| 2026-05-07 22:27 | -12.22405 | -76.60752 | 19807 ft | 376 kts | 282° |
| 2026-05-07 22:27 | -12.21857 | -76.63287 | 19694 ft | 364 kts | 282° |
| 2026-05-07 22:28 | -12.21312 | -76.65786 | 19469 ft | 356 kts | 282° |
| 2026-05-07 22:28 | -12.20773 | -76.68248 | 19124 ft | 353 kts | 282° |
| 2026-05-07 22:28 | -12.20234 | -76.70701 | 18731 ft | 352 kts | 282° |
| 2026-05-07 22:28 | -12.19699 | -76.73143 | 18350 ft | 351 kts | 282° |
| 2026-05-07 22:29 | -12.19168 | -76.75568 | 17835 ft | 348 kts | 282° |
| 2026-05-07 22:29 | -12.18637 | -76.77981 | 17274 ft | 346 kts | 282° |
| 2026-05-07 22:29 | -12.18113 | -76.80368 | 16774 ft | 343 kts | 282° |
| 2026-05-07 22:29 | -12.17595 | -76.82741 | 16334 ft | 340 kts | 282° |
| 2026-05-07 22:30 | -12.17082 | -76.85096 | 15825 ft | 338 kts | 282° |
| 2026-05-07 22:30 | -12.16592 | -76.87330 | 15357 ft | 336 kts | 282° |
| 2026-05-07 22:30 | -12.16081 | -76.89653 | 14812 ft | 332 kts | 282° |
| 2026-05-07 22:30 | -12.15574 | -76.91943 | 14255 ft | 328 kts | 282° |
| 2026-05-07 22:31 | -12.15076 | -76.94195 | 13988 ft | 322 kts | 282° |
| 2026-05-07 22:31 | -12.14590 | -76.96407 | 13523 ft | 317 kts | 281° |
| 2026-05-07 22:31 | -12.14110 | -76.98608 | 12916 ft | 316 kts | 282° |
| 2026-05-07 22:31 | -12.13640 | -77.00764 | 12447 ft | 313 kts | 282° |
| 2026-05-07 22:32 | -12.13168 | -77.02926 | 11969 ft | 311 kts | 282° |
| 2026-05-07 22:32 | -12.12697 | -77.05079 | 11495 ft | 309 kts | 282° |
| 2026-05-07 22:32 | -12.12228 | -77.07225 | 11161 ft | 308 kts | 282° |
| 2026-05-07 22:32 | -12.11761 | -77.09357 | 10843 ft | 306 kts | 282° |
| 2026-05-07 22:33 | -12.11296 | -77.11474 | 10502 ft | 303 kts | 282° |
| 2026-05-07 22:33 | -12.10837 | -77.13572 | 10032 ft | 301 kts | 282° |
| 2026-05-07 22:33 | -12.10390 | -77.15618 | 9859 ft | 288 kts | 282° |
| 2026-05-07 22:33 | -12.09799 | -77.17526 | 9594 ft | 279 kts | 296° |
| 2026-05-07 22:34 | -12.08692 | -77.19129 | 9188 ft | 275 kts | 315° |
| 2026-05-07 22:34 | -12.07174 | -77.20292 | 8741 ft | 273 kts | 333° |
| 2026-05-07 22:34 | -12.05469 | -77.21135 | 8256 ft | 271 kts | 334° |
| 2026-05-07 22:34 | -12.03773 | -77.21968 | 7719 ft | 269 kts | 334° |
| 2026-05-07 22:35 | -12.02110 | -77.22791 | 7189 ft | 267 kts | 334° |
| 2026-05-07 22:35 | -12.00451 | -77.23624 | 6669 ft | 265 kts | 333° |
| 2026-05-07 22:35 | -11.98811 | -77.24474 | 6137 ft | 263 kts | 332° |
| 2026-05-07 22:35 | -11.97186 | -77.25326 | 5638 ft | 262 kts | 332° |
| 2026-05-07 22:36 | -11.95569 | -77.26176 | 5189 ft | 260 kts | 332° |
| 2026-05-07 22:36 | -11.93966 | -77.27019 | 4738 ft | 258 kts | 332° |
| 2026-05-07 22:36 | -11.92372 | -77.27851 | 4279 ft | 256 kts | 335° |
| 2026-05-07 22:36 | -11.90659 | -77.28227 | 4016 ft | 253 kts | 6° |
| 2026-05-07 22:37 | -11.89066 | -77.27696 | 3819 ft | 236 kts | 36° |
| 2026-05-07 22:37 | -11.87806 | -77.26619 | 3325 ft | 236 kts | 45° |
| 2026-05-07 22:37 | -11.86794 | -77.25341 | 2990 ft | 226 kts | 65° |
| 2026-05-07 22:37 | -11.86332 | -77.23876 | 2865 ft | 213 kts | 85° |
| 2026-05-07 22:38 | -11.86367 | -77.22404 | 2738 ft | 204 kts | 103° |
| 2026-05-07 22:38 | -11.86838 | -77.21086 | 2612 ft | 198 kts | 121° |
| 2026-05-07 22:38 | -11.87677 | -77.19990 | 2443 ft | 195 kts | 139° |
| 2026-05-07 22:38 | -11.88774 | -77.19242 | 2343 ft | 185 kts | 153° |
| 2026-05-07 22:39 | -11.89902 | -77.18681 | 2217 ft | 175 kts | 155° |
| 2026-05-07 22:39 | -11.90910 | -77.18187 | 2148 ft | 166 kts | 154° |
| 2026-05-07 22:39 | -11.91937 | -77.17682 | 1994 ft | 161 kts | 154° |
| 2026-05-07 22:39 | -11.92931 | -77.17192 | 1812 ft | 156 kts | 155° |
| 2026-05-07 22:40 | -11.93893 | -77.16718 | 1622 ft | 151 kts | 155° |
| 2026-05-07 22:40 | -11.94823 | -77.16259 | 1432 ft | 147 kts | 155° |
| 2026-05-07 22:40 | -11.95735 | -77.15809 | 1252 ft | 145 kts | 156° |
| 2026-05-07 22:40 | -11.96647 | -77.15360 | 1053 ft | 145 kts | 156° |
| 2026-05-07 22:41 | -11.97545 | -77.14917 | 854 ft | 145 kts | 156° |
| 2026-05-07 22:41 | -11.98451 | -77.14471 | 672 ft | 144 kts | 157° |
| 2026-05-07 22:41 | -11.99353 | -77.14026 | 472 ft | 144 kts | 156° |
| 2026-05-07 22:41 | -12.00249 | -77.13583 | 287 ft | 143 kts | 156° |
| 2026-05-07 22:42 | -12.01140 | -77.13145 | 106 ft | 141 kts | 156° |
| 2026-05-07 22:42 | -12.01988 | -77.12726 | 42 ft | 118 kts | 153° |
| 2026-05-07 22:42 | -12.02560 | -77.12443 | 50 ft | 55 kts | 153° |
| 2026-05-07 22:42 | -12.02738 | -77.12275 | 52 ft | 17 kts | 126° |
| 2026-05-07 22:43 | -12.02746 | -77.12191 | 62 ft | 10 kts | 32° |
| 2026-05-07 22:43 | -12.02707 | -77.12193 | 60 ft | 0 kts | 330° |